Thursday, April 26, 2018, 4:59 PM EDT
Back to Local

KNUI, Knui Webster Field Annex

Location: Saint Inigoes, MD, United States Lat: 38.15
Local Time: 4:59 PM EDT (20:59 GMT) Lon: -76.417
Time Zone: US/Eastern Elev: 19 ft

Show me the last for .
Show Decoded

2018-04-26 14:53 METAR KNUI 261853Z AUTO 25008KT 8SM CLR 21/02 A2986 RMK AO2 SLP110 T02060022 =
2018-04-26 13:53 METAR KNUI 261753Z AUTO 25010KT 8SM CLR 19/06 A2986 RMK AO2 SLP110 T01890056
                 10189 20117 57003 =
2018-04-26 12:53 METAR KNUI 261653Z AUTO 25010KT 8SM CLR 18/06 A2986 RMK AO2 SLP111 T01780056 =
2018-04-26 11:53 METAR KNUI 261553Z AUTO 24012KT 8SM CLR 17/07 A2987 RMK AO2 SLP112 T01670072 =
2018-04-26 10:53 METAR KNUI 261453Z AUTO VRB03KT 7SM CLR 16/04 A2987 RMK AO2 SLP113 T01610044
                 50004 =
2018-04-26 09:53 METAR KNUI 261353Z AUTO 30008KT 7SM CLR 14/05 A2987 RMK AO2 SLP114 T01440050 =
2018-04-26 08:53 METAR KNUI 261253Z AUTO 31008G15KT 270V340 7SM CLR 13/04 A2986 RMK AO2 SLP111
                 T01280044 =
2018-04-26 07:53 METAR KNUI 261153Z AUTO 31005KT 7SM CLR 12/05 A2986 RMK AO2 SLP109 70015
                 T01170050 10139 20106 53025 =
2018-04-26 06:53 METAR KNUI 261053Z AUTO 28005KT 7SM CLR 11/06 A2983 RMK AO2 SLP099 T01060061 =
2018-04-26 05:53 METAR KNUI 260953Z AUTO 31009KT 9SM CLR 12/07 A2979 RMK AO2 SLP089 T01170072 =
2018-04-26 04:53 METAR KNUI 260853Z AUTO 31009KT 9SM CLR 13/08 A2978 RMK AO2 SLP084 T01280083
                 53016 =
2018-04-26 03:53 METAR KNUI 260753Z AUTO 31006KT 9SM CLR 13/11 A2976 RMK AO2 SLP078 T01330106 =
2018-04-26 02:53 METAR KNUI 260653Z AUTO 29005KT 8SM CLR 13/12 A2974 RMK AO2 SLP071 T01330122 =
2018-04-26 01:53 METAR KNUI 260553Z AUTO 26004KT 8SM CLR 13/13 A2973 RMK AO2 SLP068 60002
                 T01330128 10161 20128 53004 =
2018-04-26 00:53 METAR KNUI 260453Z AUTO 26004KT 5SM BR CLR 14/13 A2972 RMK AO2 SLP064 T01390133
                 401890128 =
2018-04-25 23:53 METAR KNUI 260353Z AUTO 29005KT 8SM FEW095 14/14 A2971 RMK AO2 SLP061 T01440139
                 =
2018-04-25 22:53 METAR KNUI 260253Z AUTO 29006KT 8SM OVC070 15/14 A2972 RMK AO2 SLP064 60002
                 T01500144 51011 =
2018-04-25 21:53 METAR KNUI 260153Z AUTO 28005KT 7SM SCT060 OVC090 15/14 A2972 RMK AO2 RAE40
                 SLP064 P0002 T01500144 =
2018-04-25 21:08 METAR KNUI 260108Z AUTO 29008KT 6SM -RA BR FEW025 BKN048 OVC070 16/15 A2972 =
2018-04-25 20:53 METAR KNUI 260053Z AUTO 27006KT 6SM -RA BR SCT021 BKN027 OVC037 16/14 A2972 RMK
                 AO2 RAB50 SLP062 P0000 T01560144 =
2018-04-25 19:53 METAR KNUI 252353Z AUTO 26003KT 6SM BR SCT004 OVC018 16/16 A2969 RMK AO2 RAE41
                 SLP052 P0006 60013 T01610156 10189 20156 51009 =
2018-04-25 19:30 METAR KNUI 252330Z AUTO 23004KT 3SM -RA BR BKN004 OVC017 16/16 A2968 RMK AO2
                 P0006 T01610156 =
2018-04-25 19:15 METAR KNUI 252315Z AUTO 25003KT 1SM RA BR FEW005 BKN018 OVC027 16/16 A2967 RMK
                 AO2 P0006 T01610161 =
2018-04-25 19:00 METAR KNUI 252300Z AUTO 28004KT 1SM RA BR FEW014 BKN027 OVC040 16/16 A2967 RMK
                 AO2 P0002 T01610156 =
2018-04-25 18:53 METAR KNUI 252253Z AUTO 28005KT 1 1/2SM -RA BR SCT027 SCT033 OVC040 16/16 A2967
                 RMK AO2 RAB00 SLP047 P0007 T01610156 =
2018-04-25 18:32 METAR KNUI 252232Z AUTO 00000KT 1SM +RA BR SCT006 BKN034 OVC041 16/16 A2966 RMK
                 AO2 RAB00 P0005 T01610161 =
2018-04-25 18:12 METAR KNUI 252212Z AUTO 32004KT 1 3/4SM -RA BR OVC006 17/16 A2966 RMK AO2 RAB00
                 P0001 T01670161 =
2018-04-25 17:53 METAR KNUI 252153Z AUTO 27004KT 5SM BR BKN010 OVC022 17/16 A2966 RMK AO2 CIG
                 007V011 SLP043 T01670156 =
2018-04-25 17:48 METAR KNUI 252148Z AUTO 26005KT 5SM BR BKN010 OVC017 17/16 A2966 RMK AO2 CIG
                 007V014 =
2018-04-25 17:36 METAR KNUI 252136Z AUTO 26006KT 6SM BR BKN008 BKN012 OVC022 17/16 A2966 RMK AO2
                 CIG 007V011 T01720156 =
2018-04-25 17:27 METAR KNUI 252127Z AUTO 26005KT 6SM BR SCT008 BKN012 OVC022 17/16 A2966 RMK AO2
                 T01720156 =

Support USWX by starting your Amazon purchase here.